createdAt,value
2023-03-31T00:01:10.501Z,13.90
2023-03-31T00:03:43.759Z,13.80
2023-03-31T00:06:18.356Z,13.90
2023-03-31T00:08:52.759Z,13.80
2023-03-31T00:11:22.899Z,13.60
2023-03-31T00:13:51.053Z,13.90
2023-03-31T00:16:19.201Z,13.70
2023-03-31T00:18:56.032Z,13.80
2023-03-31T00:21:25.738Z,13.60
2023-03-31T00:23:58.077Z,13.60
2023-03-31T00:26:27.897Z,13.80
2023-03-31T00:28:56.417Z,14.10
2023-03-31T00:31:27.736Z,13.90
2023-03-31T00:33:58.349Z,14.00
2023-03-31T00:36:28.254Z,14.00
2023-03-31T00:39:01.560Z,13.80
2023-03-31T00:41:31.368Z,13.70
2023-03-31T00:44:08.108Z,14.00
2023-03-31T00:46:42.724Z,13.90
2023-03-31T00:49:22.278Z,14.10
2023-03-31T00:52:18.287Z,14.20
2023-03-31T00:54:51.392Z,14.10
2023-03-31T00:57:19.567Z,14.20
2023-03-31T00:59:50.943Z,14.00
2023-03-31T01:02:20.537Z,14.00
2023-03-31T01:04:55.956Z,14.20
2023-03-31T01:07:27.858Z,14.40
2023-03-31T01:10:01.039Z,14.10
2023-03-31T01:12:29.951Z,14.00
2023-03-31T01:14:59.276Z,14.00
2023-03-31T01:17:30.789Z,13.90
2023-03-31T01:20:14.508Z,14.00
2023-03-31T01:23:03.500Z,13.60
2023-03-31T01:26:07.995Z,13.50
2023-03-31T01:28:41.904Z,13.40
2023-03-31T01:31:49.028Z,13.50
2023-03-31T01:34:59.981Z,13.40
2023-03-31T01:38:04.643Z,13.00
2023-03-31T01:41:01.452Z,13.30
2023-03-31T01:43:35.316Z,13.40
2023-03-31T01:46:11.388Z,13.70
2023-03-31T01:48:49.767Z,13.50
2023-03-31T01:51:28.907Z,13.80
2023-03-31T01:54:04.138Z,14.00
2023-03-31T01:56:39.483Z,14.10
2023-03-31T01:59:13.021Z,14.00
2023-03-31T02:01:50.655Z,13.90
2023-03-31T02:04:23.507Z,13.70
2023-03-31T02:06:56.640Z,13.30
2023-03-31T02:09:28.265Z,13.30
2023-03-31T02:12:00.655Z,13.40
2023-03-31T02:14:32.227Z,13.40
2023-03-31T02:17:04.285Z,13.50
2023-03-31T02:19:35.327Z,13.60
2023-03-31T02:22:08.900Z,13.70
2023-03-31T02:24:39.651Z,13.80
2023-03-31T02:27:12.932Z,13.90
2023-03-31T02:29:41.193Z,14.00
2023-03-31T02:32:18.764Z,14.00
2023-03-31T02:34:46.810Z,14.00
2023-03-31T02:37:16.103Z,14.20
2023-03-31T02:39:49.925Z,14.20
2023-03-31T02:42:20.492Z,14.20
2023-03-31T02:44:51.509Z,14.00
2023-03-31T02:47:26.182Z,13.80
2023-03-31T02:50:01.318Z,13.80
2023-03-31T02:52:42.564Z,13.40
2023-03-31T02:55:29.780Z,13.30
2023-03-31T02:58:47.777Z,13.40
2023-03-31T03:01:47.736Z,13.30
2023-03-31T03:04:34.031Z,13.20
2023-03-31T03:07:10.872Z,13.20
2023-03-31T03:09:50.590Z,13.30
2023-03-31T03:12:26.140Z,13.40
2023-03-31T03:15:00.451Z,13.60
2023-03-31T03:17:36.666Z,13.70
2023-03-31T03:20:08.245Z,13.60
2023-03-31T03:22:37.906Z,13.60
2023-03-31T03:25:07.794Z,13.50
2023-03-31T03:27:35.859Z,13.30
2023-03-31T03:30:05.906Z,13.50
2023-03-31T03:32:36.245Z,12.90
2023-03-31T03:35:07.104Z,12.80
2023-03-31T03:37:35.353Z,12.90
2023-03-31T03:40:04.438Z,13.00
2023-03-31T03:42:32.507Z,13.20
2023-03-31T03:45:01.754Z,13.10
2023-03-31T03:47:30.242Z,13.10
2023-03-31T03:50:00.916Z,13.10
2023-03-31T03:52:29.104Z,13.30
2023-03-31T03:55:02.095Z,13.10
2023-03-31T03:57:30.223Z,13.00
2023-03-31T03:59:58.258Z,13.00
2023-03-31T04:02:29.320Z,13.00
2023-03-31T04:04:58.947Z,13.10
2023-03-31T04:07:28.813Z,13.20
2023-03-31T04:09:57.350Z,13.30
2023-03-31T04:12:25.976Z,13.30
2023-03-31T04:14:53.927Z,13.30
2023-03-31T04:17:34.922Z,13.20
2023-03-31T04:20:08.839Z,13.00
2023-03-31T04:22:41.480Z,12.70
2023-03-31T04:25:15.222Z,12.80
2023-03-31T04:27:47.054Z,12.90
2023-03-31T04:33:10.701Z,13.10
2023-03-31T04:35:49.860Z,13.00
2023-03-31T04:38:22.478Z,13.20
2023-03-31T04:40:54.714Z,13.10
2023-03-31T04:43:22.975Z,13.00
2023-03-31T04:45:52.153Z,13.10
2023-03-31T04:48:20.245Z,12.90
2023-03-31T04:50:49.142Z,12.90
2023-03-31T04:53:17.138Z,12.90
2023-03-31T04:55:46.830Z,12.90
2023-03-31T04:58:14.926Z,12.90
2023-03-31T05:00:43.974Z,12.80
2023-03-31T05:03:12.711Z,12.80
2023-03-31T05:05:43.238Z,12.70
2023-03-31T05:08:14.835Z,12.80
2023-03-31T05:10:42.849Z,12.70
2023-03-31T05:13:12.985Z,12.80
2023-03-31T05:15:41.368Z,12.70
2023-03-31T05:18:09.553Z,12.60
2023-03-31T05:20:37.749Z,12.40
2023-03-31T05:23:06.860Z,12.50
2023-03-31T05:25:35.213Z,12.70
2023-03-31T05:28:04.045Z,12.60
2023-03-31T05:30:33.696Z,12.20
2023-03-31T05:33:01.979Z,12.30
2023-03-31T05:35:31.326Z,12.30
2023-03-31T05:37:59.397Z,12.20
2023-03-31T05:40:27.404Z,12.10
2023-03-31T05:42:56.478Z,12.30
2023-03-31T05:45:27.018Z,12.60
2023-03-31T05:47:57.511Z,13.10
2023-03-31T05:50:28.399Z,13.00
2023-03-31T05:52:57.764Z,12.90
2023-03-31T05:55:25.823Z,12.80
2023-03-31T05:57:54.924Z,12.80
2023-03-31T06:00:23.585Z,13.10
2023-03-31T06:02:51.968Z,13.10
2023-03-31T06:05:23.893Z,13.20
2023-03-31T06:07:51.937Z,13.30
2023-03-31T06:10:20.192Z,13.30
2023-03-31T06:12:49.581Z,13.10
2023-03-31T06:15:18.314Z,12.90
2023-03-31T06:17:46.894Z,12.60
2023-03-31T06:20:27.034Z,12.60
2023-03-31T06:22:57.686Z,12.70
2023-03-31T06:27:55.324Z,12.90
2023-03-31T06:30:24.816Z,12.80
2023-03-31T06:32:53.950Z,12.70
2023-03-31T06:35:22.206Z,12.60
2023-03-31T06:37:51.721Z,12.30
2023-03-31T06:40:21.853Z,12.20
2023-03-31T06:42:50.085Z,12.30
2023-03-31T06:45:18.604Z,12.10
2023-03-31T06:47:47.262Z,12.10
2023-03-31T06:50:15.920Z,12.30
2023-03-31T06:52:44.321Z,12.50
2023-03-31T06:55:13.124Z,12.40
2023-03-31T06:57:43.462Z,12.30
2023-03-31T07:00:13.385Z,12.30
2023-03-31T07:02:41.802Z,12.20
2023-03-31T07:05:17.242Z,12.20
2023-03-31T07:07:46.444Z,12.40
2023-03-31T07:10:15.571Z,12.40
2023-03-31T07:12:45.507Z,12.20
2023-03-31T07:15:13.880Z,12.40
2023-03-31T07:17:42.930Z,12.30
2023-03-31T07:20:17.050Z,12.20
2023-03-31T07:22:46.637Z,12.20
2023-03-31T07:25:17.159Z,12.00
2023-03-31T07:27:47.143Z,11.80
2023-03-31T07:30:18.239Z,11.70
2023-03-31T07:32:48.320Z,11.80
2023-03-31T07:35:17.710Z,11.90
2023-03-31T07:37:48.339Z,12.10
2023-03-31T07:40:20.376Z,12.20
2023-03-31T07:42:51.939Z,12.20
2023-03-31T07:45:22.293Z,12.20
2023-03-31T07:47:58.146Z,12.30
2023-03-31T07:50:27.990Z,12.40
2023-03-31T07:52:57.774Z,12.70
2023-03-31T07:55:27.424Z,12.80
2023-03-31T07:57:56.821Z,12.90
2023-03-31T08:00:25.727Z,13.00
2023-03-31T08:02:57.762Z,13.00
2023-03-31T08:05:26.163Z,13.00
2023-03-31T08:07:54.297Z,13.00
2023-03-31T08:10:26.974Z,12.90
2023-03-31T08:12:56.793Z,12.50
2023-03-31T08:15:25.489Z,12.60
2023-03-31T08:17:53.863Z,12.70
2023-03-31T08:20:21.936Z,12.90
2023-03-31T08:22:51.113Z,12.90
2023-03-31T08:25:21.117Z,13.00
2023-03-31T08:27:51.926Z,13.10
2023-03-31T08:30:22.023Z,12.80
2023-03-31T08:32:50.729Z,12.70
2023-03-31T08:38:08.650Z,12.80
2023-03-31T08:40:44.922Z,12.90
2023-03-31T08:43:21.733Z,13.00
2023-03-31T08:45:52.662Z,13.10
2023-03-31T08:48:26.748Z,13.10
2023-03-31T08:51:00.009Z,13.10
2023-03-31T08:53:32.457Z,12.80
2023-03-31T08:56:01.391Z,12.90
2023-03-31T08:58:39.361Z,12.70
2023-03-31T09:01:19.732Z,12.70
2023-03-31T09:03:58.337Z,12.80
2023-03-31T09:06:36.992Z,12.80
2023-03-31T09:09:17.349Z,12.70
2023-03-31T09:11:52.744Z,12.90
2023-03-31T09:14:28.162Z,12.70
2023-03-31T09:17:09.020Z,12.70
2023-03-31T09:19:41.047Z,12.80
2023-03-31T09:22:17.560Z,13.10
2023-03-31T09:24:53.901Z,13.30
2023-03-31T09:27:22.472Z,13.50
2023-03-31T09:29:53.956Z,13.70
2023-03-31T09:32:27.295Z,13.60
2023-03-31T09:35:00.996Z,13.50
2023-03-31T09:37:33.802Z,13.50
2023-03-31T09:40:08.228Z,13.70
2023-03-31T09:42:37.449Z,14.00
2023-03-31T09:45:07.580Z,14.10
2023-03-31T09:47:43.198Z,14.30
2023-03-31T09:50:13.483Z,13.90
2023-03-31T09:52:44.780Z,13.70
2023-03-31T09:55:36.102Z,13.60
2023-03-31T09:58:08.913Z,13.70
2023-03-31T10:00:42.026Z,14.00
2023-03-31T10:03:14.947Z,14.00
2023-03-31T10:05:52.223Z,13.80
2023-03-31T10:08:30.222Z,13.70
2023-03-31T10:11:11.741Z,13.70
2023-03-31T10:13:46.942Z,13.70
2023-03-31T10:16:22.308Z,13.70
2023-03-31T10:18:51.741Z,14.00
2023-03-31T10:21:25.564Z,14.10
2023-03-31T10:23:55.389Z,14.00
2023-03-31T10:26:27.329Z,14.00
2023-03-31T10:28:57.015Z,14.10
2023-03-31T10:31:27.775Z,14.20
2023-03-31T10:33:59.990Z,14.40
2023-03-31T10:36:29.685Z,14.40
2023-03-31T10:38:59.606Z,14.40
2023-03-31T10:41:30.304Z,14.30
2023-03-31T10:44:02.958Z,14.10
2023-03-31T10:46:48.115Z,13.90
2023-03-31T10:49:27.600Z,13.90
2023-03-31T10:51:57.772Z,13.40
2023-03-31T10:54:26.741Z,13.60
2023-03-31T10:56:57.365Z,13.60
2023-03-31T10:59:40.011Z,13.30
2023-03-31T11:02:39.977Z,13.50
2023-03-31T11:05:16.448Z,13.90
2023-03-31T11:08:00.634Z,14.00
2023-03-31T11:10:47.053Z,14.00
2023-03-31T11:13:22.128Z,14.30
2023-03-31T11:15:58.959Z,14.50
2023-03-31T11:18:44.183Z,14.30
2023-03-31T11:21:25.133Z,14.60
2023-03-31T11:24:06.190Z,14.60
2023-03-31T11:26:43.761Z,14.90
2023-03-31T11:29:26.768Z,15.00
2023-03-31T11:32:07.249Z,15.20
2023-03-31T11:34:47.196Z,15.30
2023-03-31T11:37:41.852Z,15.20
2023-03-31T11:40:28.590Z,13.80
2023-03-31T11:43:02.017Z,13.00
2023-03-31T11:45:35.648Z,12.60
2023-03-31T11:48:10.346Z,12.40
2023-03-31T11:50:42.803Z,12.20
2023-03-31T11:53:19.529Z,12.00
2023-03-31T11:55:51.720Z,12.10
2023-03-31T11:58:23.703Z,12.20
2023-03-31T12:00:57.559Z,12.30
2023-03-31T12:03:38.044Z,12.30
2023-03-31T12:06:17.773Z,12.30
2023-03-31T12:09:02.089Z,12.50
2023-03-31T12:11:36.205Z,12.30
2023-03-31T12:14:17.917Z,12.50
2023-03-31T12:16:49.394Z,12.70
2023-03-31T12:19:23.774Z,12.70
2023-03-31T12:21:55.276Z,12.90
2023-03-31T12:24:25.853Z,13.40
2023-03-31T12:27:04.473Z,13.30
2023-03-31T12:29:35.874Z,13.70
2023-03-31T12:32:08.439Z,13.70
2023-03-31T12:34:44.357Z,13.90
2023-03-31T12:38:06.752Z,13.80
2023-03-31T12:40:47.558Z,14.20
2023-03-31T12:43:31.053Z,13.90
2023-03-31T12:46:14.670Z,13.90
2023-03-31T12:49:06.571Z,14.10
2023-03-31T12:52:05.824Z,14.10
2023-03-31T12:54:59.414Z,14.00
2023-03-31T12:57:29.025Z,13.70
2023-03-31T13:00:30.553Z,14.00
2023-03-31T13:03:39.029Z,13.80
2023-03-31T13:06:07.470Z,13.70
2023-03-31T13:08:56.522Z,13.80
2023-03-31T13:11:40.332Z,13.90
2023-03-31T13:14:17.147Z,13.90
2023-03-31T13:16:46.007Z,13.80
2023-03-31T13:19:29.039Z,13.90
2023-03-31T13:21:58.755Z,14.20
2023-03-31T13:24:30.095Z,14.30
2023-03-31T13:26:59.997Z,14.20
2023-03-31T13:29:41.851Z,14.50
2023-03-31T13:32:22.136Z,14.70
2023-03-31T13:35:00.102Z,14.60
2023-03-31T13:37:53.788Z,14.90
2023-03-31T13:40:50.921Z,15.10
2023-03-31T13:43:51.128Z,14.90
2023-03-31T13:46:53.307Z,15.00
2023-03-31T13:49:59.026Z,14.80
2023-03-31T13:52:38.344Z,14.50
2023-03-31T13:55:45.064Z,14.50
2023-03-31T13:59:13.108Z,14.50
2023-03-31T14:02:26.991Z,14.30
2023-03-31T14:05:23.113Z,14.30
2023-03-31T14:07:56.939Z,14.60
2023-03-31T14:10:29.217Z,14.70
2023-03-31T14:13:08.245Z,14.80
2023-03-31T14:15:39.957Z,14.90
2023-03-31T14:18:13.510Z,14.90
2023-03-31T14:20:58.162Z,14.90
2023-03-31T14:23:39.737Z,15.20
2023-03-31T14:26:15.817Z,15.30
2023-03-31T14:29:01.229Z,15.20
2023-03-31T14:31:39.535Z,15.00
2023-03-31T14:34:24.654Z,15.00
2023-03-31T14:36:59.429Z,15.00
2023-03-31T14:39:32.200Z,15.10
2023-03-31T14:42:04.935Z,15.10
2023-03-31T14:44:37.331Z,15.00
2023-03-31T14:47:07.780Z,14.90
2023-03-31T14:49:40.217Z,15.10
2023-03-31T14:52:16.528Z,15.20
2023-03-31T14:54:47.431Z,15.30
2023-03-31T14:57:22.713Z,15.20
2023-03-31T14:59:54.191Z,15.20
2023-03-31T15:02:33.049Z,14.90
2023-03-31T15:05:05.509Z,15.00
2023-03-31T15:07:34.861Z,15.00
2023-03-31T15:10:04.495Z,14.90
2023-03-31T15:12:33.001Z,14.90
2023-03-31T15:15:05.532Z,15.00
2023-03-31T15:17:40.632Z,15.10
2023-03-31T15:20:32.117Z,15.10
2023-03-31T15:23:21.137Z,15.10
2023-03-31T15:25:50.200Z,14.80
2023-03-31T15:28:21.985Z,14.60
2023-03-31T15:30:56.930Z,14.70
2023-03-31T15:33:41.447Z,14.70
2023-03-31T15:36:13.182Z,14.80
2023-03-31T15:38:42.530Z,14.70
2023-03-31T15:41:16.626Z,14.30
2023-03-31T15:43:48.411Z,14.20
2023-03-31T15:46:22.835Z,14.00
2023-03-31T15:48:55.177Z,13.60
2023-03-31T15:51:32.337Z,13.20
2023-03-31T15:54:00.561Z,13.00
2023-03-31T15:56:35.825Z,13.10
2023-03-31T15:59:06.141Z,13.10
2023-03-31T16:01:37.252Z,12.80
2023-03-31T16:04:11.218Z,12.80
2023-03-31T16:06:45.838Z,12.90
2023-03-31T16:09:18.736Z,12.70
2023-03-31T16:11:50.810Z,13.00
2023-03-31T16:14:24.021Z,13.10
2023-03-31T16:16:57.782Z,13.40
2023-03-31T16:19:29.127Z,13.40
2023-03-31T16:22:02.647Z,12.80
2023-03-31T16:24:34.738Z,12.80
2023-03-31T16:27:08.227Z,12.80
2023-03-31T16:29:38.325Z,12.80
2023-03-31T16:32:10.521Z,13.00
2023-03-31T16:34:53.976Z,12.80
2023-03-31T16:37:27.216Z,12.60
2023-03-31T16:39:56.509Z,12.60
2023-03-31T16:42:25.848Z,12.50
2023-03-31T16:50:16.130Z,12.70
2023-03-31T16:52:47.104Z,12.80
2023-03-31T16:55:15.718Z,12.70
2023-03-31T16:57:44.172Z,13.10
2023-03-31T17:00:13.318Z,13.30
2023-03-31T17:02:41.468Z,13.40
2023-03-31T17:05:13.455Z,13.50
2023-03-31T17:07:43.445Z,13.50
2023-03-31T17:10:13.818Z,13.10
2023-03-31T17:12:42.969Z,13.10
2023-03-31T17:15:12.542Z,13.10
2023-03-31T17:17:41.214Z,12.90
2023-03-31T17:20:14.462Z,12.90
2023-03-31T17:22:43.437Z,12.70
2023-03-31T17:25:12.798Z,12.80
2023-03-31T17:27:41.337Z,12.80
2023-03-31T17:30:10.702Z,13.00
2023-03-31T17:32:39.461Z,12.90
2023-03-31T17:35:08.306Z,13.00
2023-03-31T17:37:37.911Z,12.90
2023-03-31T17:40:07.188Z,13.10
2023-03-31T17:42:37.903Z,13.10
2023-03-31T17:45:07.280Z,13.20
2023-03-31T17:47:35.481Z,13.10
2023-03-31T17:50:03.653Z,12.80
2023-03-31T17:52:32.193Z,12.50
2023-03-31T17:55:02.854Z,12.70
2023-03-31T17:57:33.622Z,12.80
2023-03-31T18:00:03.376Z,12.70
2023-03-31T18:02:38.060Z,12.50
2023-03-31T18:05:10.782Z,12.50
2023-03-31T18:07:39.980Z,12.50
2023-03-31T18:10:10.392Z,12.70
2023-03-31T18:12:41.813Z,12.80
2023-03-31T18:15:12.312Z,13.00
2023-03-31T18:17:40.851Z,12.70
2023-03-31T18:20:09.871Z,12.60
2023-03-31T18:22:38.435Z,12.40
2023-03-31T18:25:10.327Z,12.20
2023-03-31T18:27:38.430Z,12.20
2023-03-31T18:30:09.044Z,12.50
2023-03-31T18:32:39.027Z,12.50
2023-03-31T18:35:10.527Z,12.70
2023-03-31T18:37:38.676Z,12.70
2023-03-31T18:40:09.265Z,12.50
2023-03-31T18:42:37.725Z,12.60
2023-03-31T18:45:07.353Z,12.50
2023-03-31T18:47:35.945Z,12.50
2023-03-31T18:50:08.284Z,12.70
2023-03-31T18:52:37.156Z,12.30
2023-03-31T18:55:07.062Z,12.30
2023-03-31T18:57:35.537Z,12.30
2023-03-31T19:00:03.703Z,12.10
2023-03-31T19:02:32.435Z,12.10
2023-03-31T19:05:02.317Z,12.20
2023-03-31T19:07:33.408Z,12.20
2023-03-31T19:10:02.521Z,12.10
2023-03-31T19:12:30.596Z,12.30
2023-03-31T19:14:58.830Z,12.20
2023-03-31T19:17:27.181Z,12.10
2023-03-31T19:19:55.222Z,12.00
2023-03-31T19:22:25.147Z,12.20
2023-03-31T19:24:54.537Z,12.10
2023-03-31T19:27:24.152Z,12.40
2023-03-31T19:29:52.491Z,12.60
2023-03-31T19:32:20.592Z,12.90
2023-03-31T19:34:48.920Z,12.90
2023-03-31T19:37:16.921Z,12.90
2023-03-31T19:39:45.508Z,12.70
2023-03-31T19:42:15.371Z,12.50
2023-03-31T19:44:45.853Z,12.20
2023-03-31T19:47:14.522Z,12.20
2023-03-31T19:49:44.679Z,11.90
2023-03-31T19:52:13.855Z,11.90
2023-03-31T19:54:42.751Z,11.90
2023-03-31T19:57:12.079Z,11.90
2023-03-31T19:59:44.707Z,11.90
2023-03-31T20:02:14.020Z,12.30
2023-03-31T20:04:42.680Z,12.20
2023-03-31T20:07:14.027Z,12.20
2023-03-31T20:09:43.207Z,12.10
2023-03-31T20:12:11.291Z,11.90
2023-03-31T20:14:39.895Z,12.20
2023-03-31T20:17:10.033Z,12.10
2023-03-31T20:19:39.418Z,12.10
2023-03-31T20:22:07.471Z,12.00
2023-03-31T20:24:35.680Z,12.20
2023-03-31T20:27:06.169Z,12.00
2023-03-31T20:29:34.241Z,12.10
2023-03-31T20:32:03.670Z,12.10
2023-03-31T20:34:36.225Z,12.30
2023-03-31T20:37:04.765Z,12.30
2023-03-31T20:39:33.313Z,12.30
2023-03-31T20:42:01.798Z,12.00
2023-03-31T20:44:29.916Z,12.10
2023-03-31T20:46:59.032Z,12.40
2023-03-31T20:49:27.383Z,12.50
2023-03-31T20:51:56.965Z,12.50
2023-03-31T20:54:25.462Z,12.40
2023-03-31T20:56:53.682Z,12.20
2023-03-31T20:59:22.110Z,12.00
2023-03-31T21:01:50.150Z,12.10
2023-03-31T21:04:18.813Z,12.10
2023-03-31T21:06:48.858Z,11.60
2023-03-31T21:09:18.353Z,11.60
2023-03-31T21:11:47.568Z,11.80
2023-03-31T21:14:17.097Z,11.70
2023-03-31T21:16:46.428Z,11.90
2023-03-31T21:19:15.484Z,11.70
2023-03-31T21:21:43.661Z,11.90
2023-03-31T21:24:13.111Z,12.00
2023-03-31T21:26:42.813Z,12.00
2023-03-31T21:29:11.453Z,11.80
2023-03-31T21:31:41.454Z,11.90
2023-03-31T21:34:10.827Z,12.20
2023-03-31T21:36:38.899Z,12.30
2023-03-31T21:39:09.455Z,11.80
2023-03-31T21:41:39.711Z,11.80
2023-03-31T21:44:09.934Z,11.70
2023-03-31T21:46:40.200Z,11.70
2023-03-31T21:49:12.100Z,11.60
2023-03-31T21:51:40.169Z,11.70
2023-03-31T21:54:08.681Z,11.70
2023-03-31T21:56:37.221Z,11.50
2023-03-31T21:59:05.248Z,11.60
2023-03-31T22:01:35.542Z,11.50
2023-03-31T22:04:03.644Z,11.20
2023-03-31T22:06:32.135Z,11.40
2023-03-31T22:09:00.442Z,11.40
2023-03-31T22:11:29.537Z,11.40
2023-03-31T22:13:58.185Z,11.30
2023-03-31T22:16:27.163Z,11.40
2023-03-31T22:18:57.785Z,11.50
2023-03-31T22:21:44.004Z,11.40
2023-03-31T22:24:14.401Z,11.60
2023-03-31T22:26:43.062Z,11.60
2023-03-31T22:29:16.251Z,11.50
2023-03-31T22:31:44.821Z,11.50
2023-03-31T22:34:14.270Z,11.90
2023-03-31T22:36:43.007Z,12.00
2023-03-31T22:39:11.568Z,11.80
2023-03-31T22:41:41.914Z,11.70
2023-03-31T22:44:11.888Z,11.80
2023-03-31T22:46:42.514Z,11.70
2023-03-31T22:49:11.121Z,11.70
2023-03-31T22:51:42.056Z,11.70
2023-03-31T22:54:14.486Z,11.80
2023-03-31T22:56:45.869Z,11.70
2023-03-31T22:59:14.244Z,11.70
2023-03-31T23:01:42.374Z,11.70
2023-03-31T23:04:10.621Z,11.60
2023-03-31T23:06:44.999Z,11.60
2023-03-31T23:09:13.162Z,11.70
2023-03-31T23:11:42.422Z,11.50
2023-03-31T23:14:10.482Z,11.60
2023-03-31T23:16:39.519Z,11.80
2023-03-31T23:19:09.467Z,11.80
2023-03-31T23:21:38.023Z,11.90
2023-03-31T23:24:08.235Z,12.10
2023-03-31T23:26:36.349Z,12.00
2023-03-31T23:29:05.991Z,11.80
2023-03-31T23:31:35.070Z,11.80
2023-03-31T23:34:03.627Z,11.50
2023-03-31T23:36:31.832Z,11.60
2023-03-31T23:39:00.016Z,11.70
2023-03-31T23:41:31.446Z,11.80
2023-03-31T23:43:59.520Z,11.80
2023-03-31T23:46:27.659Z,11.80
2023-03-31T23:49:00.514Z,11.70
2023-03-31T23:51:31.489Z,11.70
2023-03-31T23:53:59.480Z,11.90
2023-03-31T23:56:29.397Z,11.90
2023-03-31T23:58:57.457Z,12.00
